sim
Sign-in with your pilot id or email,
or register
Callsign
Passwort

Schedule Details

Flight Number: EWG1700 (2)
Departure: Munich Airport (EDDM) at 11:05
Arrival: Thessaloniki International Airport (LGTS) at 13:05
Route: Eurowings Passenger Schedule. Enter filed route here before submitting Pirep.

Weather Information
Getting current METAR information for EDDM 242050Z 11005KT CAVOK 16/14 Q1003 NOSIG
Getting current METAR information for LGTS 242050Z 11004KT 9999 FEW025 20/14 Q1012 NOSIG

Schedule Frequency

Route Map